Time;durP1;ratioP1;P1;durP2;ratioP2;P2;SDS_P1;SDS_P2;PMS_P1;PMS_P2;Temp;Humidity;BMP_temperature;BMP_pressure;BME280_temperature;BME280_humidity;BME280_pressure;Samples;Min_cycle;Max_cycle;Signal;HPM_P1;HPM_P2
2022/10/14 00:01:58;;;;;;;;;;;;;;;21.24;54.03;101135.81;5008562;28;2809;-63
2022/10/14 00:04:25;;;;;;;;;;;;;;;21.23;54.08;101137.19;5013061;28;2946;-64
2022/10/14 00:06:51;;;;;;;;;;;;;;;21.24;54.08;101129.31;5007341;28;2866;-63
2022/10/14 00:09:18;;;;;;;;;;;;;;;21.24;53.96;101135.81;5011613;28;2284;-64
2022/10/14 00:11:44;;;;;;;;;;;;;;;21.25;53.88;101130.78;5010064;28;3106;-64
2022/10/14 00:14:11;;;;;;;;;;;;;;;21.23;53.92;101140.06;5006718;28;2924;-64
2022/10/14 00:16:38;;;;;;;;;;;;;;;21.22;54.04;101132.84;5002987;28;2842;-64
2022/10/14 00:19:05;;;;;;;;;;;;;;;21.24;54.04;101129.31;5006086;28;2736;-63
2022/10/14 00:21:32;;;;;;;;;;;;;;;21.22;54.13;101132.84;4997367;28;3036;-64
2022/10/14 00:23:58;;;;;;;;;;;;;;;21.22;54.02;101135.00;5009996;28;2779;-64
2022/10/14 00:26:26;;;;;;;;;;;;;;;21.23;54.04;101140.06;5015551;28;2387;-64
2022/10/14 00:28:52;;;;;;;;;;;;;;;21.21;54.15;101125.59;5008428;28;2826;-63
2022/10/14 00:31:20;;;;;;;;;;;;;;;21.21;54.24;101122.72;5006950;28;2937;-64
2022/10/14 00:33:46;;;;;;;;;;;;;;;21.22;53.93;101132.84;5008576;28;2547;-64
2022/10/14 00:36:13;;;;;;;;;;;;;;;21.21;53.94;101125.59;5007484;28;2830;-64
2022/10/14 00:38:40;;;;;;;;;;;;;;;21.21;54.20;101128.50;5019096;28;2821;-63
2022/10/14 00:41:07;;;;;;;;;;;;;;;21.21;53.89;101125.59;5017293;28;2936;-64
2022/10/14 00:43:50;;;;;;;;;;;;;;;21.20;54.17;101134.88;5020883;28;2684;-64
2022/10/14 00:46:16;;;;;;;;;;;;;;;21.19;53.91;101137.03;5012086;28;2784;-64
2022/10/14 00:48:42;;;;;;;;;;;;;;;21.18;53.87;101129.75;5029166;28;2947;-63
2022/10/14 00:51:09;;;;;;;;;;;;;;;21.20;53.87;101129.13;5007913;28;2803;-63
2022/10/14 00:53:35;;;;;;;;;;;;;;;21.20;54.04;101129.13;5017756;28;2696;-64
2022/10/14 00:56:02;;;;;;;;;;;;;;;21.19;54.22;101134.16;5014830;28;2783;-64
2022/10/14 00:58:28;;;;;;;;;;;;;;;21.17;54.20;101128.28;5016563;28;2788;-63
2022/10/14 01:00:54;;;;;;;;;;;;;;;21.18;54.19;101141.28;5010328;28;3353;-64
2022/10/14 01:03:21;;;;;;;;;;;;;;;21.18;54.12;101129.75;5042598;28;2980;-63
2022/10/14 01:05:52;;;;;;;;;;;;;;;21.18;53.97;101135.53;5004780;28;2765;-64
2022/10/14 01:08:25;;;;;;;;;;;;;;;21.17;54.08;101128.28;5016242;28;2899;-63
2022/10/14 01:10:58;;;;;;;;;;;;;;;21.16;53.88;101128.94;5031904;28;2858;-63
2022/10/14 01:13:26;;;;;;;;;;;;;;;21.14;54.08;101126.69;5013026;28;2874;-63
2022/10/14 01:16:10;;;;;;;;;;;;;;;21.16;53.96;101123.16;5012056;28;2890;-63
2022/10/14 01:18:42;;;;;;;;;;;;;;;21.15;54.06;101121.69;5022172;28;2776;-63
2022/10/14 01:21:11;;;;;;;;;;;;;;;21.14;53.84;101115.16;5023759;28;2559;-63
2022/10/14 01:23:39;;;;;;;;;;;;;;;21.16;53.85;101115.28;5004411;28;2679;-63
2022/10/14 01:26:11;;;;;;;;;;;;;;;21.14;53.96;101120.94;5005630;28;3124;-63
2022/10/14 01:28:42;;;;;;;;;;;;;;;21.14;54.14;101103.66;5005984;28;2691;-63
2022/10/14 01:31:10;;;;;;;;;;;;;;;21.12;53.92;101107.19;4998339;28;2822;-63
2022/10/14 01:33:37;;;;;;;;;;;;;;;21.11;54.13;101111.44;4998150;28;2906;-63
2022/10/14 01:36:18;;;;;;;;;;;;;;;21.11;53.98;101110.72;5012746;28;2919;-63
2022/10/14 01:38:52;;;;;;;;;;;;;;;21.12;54.14;101117.97;5014128;28;2934;-63
2022/10/14 01:41:20;;;;;;;;;;;;;;;21.12;53.95;101106.47;5013816;28;2585;-64
2022/10/14 01:43:47;;;;;;;;;;;;;;;21.12;53.89;101110.06;4997183;28;2787;-64
2022/10/14 01:46:14;;;;;;;;;;;;;;;21.11;54.17;101104.97;5020613;28;2678;-63
2022/10/14 01:48:43;;;;;;;;;;;;;;;21.10;54.01;101097.72;5020024;28;2794;-64
2022/10/14 01:51:14;;;;;;;;;;;;;;;21.09;54.04;101096.22;5021487;28;2756;-65
2022/10/14 01:53:41;;;;;;;;;;;;;;;21.08;54.01;101106.25;5003247;28;2513;-64
2022/10/14 01:56:08;;;;;;;;;;;;;;;21.08;53.95;101106.25;5025198;28;2856;-64
2022/10/14 01:58:36;;;;;;;;;;;;;;;21.09;53.82;101110.63;5017610;28;2719;-64
2022/10/14 02:01:03;;;;;;;;;;;;;;;21.08;54.03;101112.03;5016810;28;2909;-63
2022/10/14 02:03:42;;;;;;;;;;;;;;;21.08;54.08;101118.53;5006988;28;2714;-64
2022/10/14 02:06:10;;;;;;;;;;;;;;;21.07;53.73;101104.75;5014902;28;2973;-64
2022/10/14 02:08:46;;;;;;;;;;;;;;;21.07;53.94;101104.75;5002357;28;2794;-64
2022/10/14 02:11:14;;;;;;;;;;;;;;;21.06;53.88;101109.03;5043519;28;3257;-64
2022/10/14 02:13:44;;;;;;;;;;;;;;;21.05;54.04;101102.53;5008400;28;3103;-64
2022/10/14 02:16:17;;;;;;;;;;;;;;;21.05;53.91;101110.41;5014406;28;2883;-63
2022/10/14 02:18:51;;;;;;;;;;;;;;;21.04;54.06;101111.81;5009285;28;3136;-64
2022/10/14 02:21:26;;;;;;;;;;;;;;;21.05;53.95;101119.06;5005699;28;3120;-64
2022/10/14 02:23:53;;;;;;;;;;;;;;;21.04;54.06;101112.56;5012094;28;2845;-63
2022/10/14 02:26:22;;;;;;;;;;;;;;;21.04;53.92;101117.56;4992593;28;2942;-63
2022/10/14 02:28:48;;;;;;;;;;;;;;;21.03;54.10;101124.75;5012441;28;2926;-63
2022/10/14 02:31:15;;;;;;;;;;;;;;;21.05;53.95;101124.81;5012024;28;3069;-64
2022/10/14 02:33:44;;;;;;;;;;;;;;;21.04;54.05;101126.97;5029824;28;2829;-64
2022/10/14 02:36:10;;;;;;;;;;;;;;;21.03;54.02;101121.88;5012389;28;2795;-63
2022/10/14 02:38:37;;;;;;;;;;;;;;;21.01;54.06;101124.63;5012558;28;3053;-64
2022/10/14 02:41:04;;;;;;;;;;;;;;;21.01;53.94;101122.50;5008753;28;2872;-63
2022/10/14 02:43:33;;;;;;;;;;;;;;;21.03;53.96;101116.09;5027736;28;2743;-64
2022/10/14 02:46:04;;;;;;;;;;;;;;;21.04;53.87;101120.47;5011048;28;3165;-64
2022/10/14 02:48:30;;;;;;;;;;;;;;;21.06;53.84;101106.16;5013487;28;2848;-64
2022/10/14 02:50:57;;;;;;;;;;;;;;;21.08;54.10;101103.38;5013310;28;2834;-64
2022/10/14 02:53:23;;;;;;;;;;;;;;;21.10;53.86;101091.97;5012611;28;3242;-66
2022/10/14 02:55:50;;;;;;;;;;;;;;;21.11;53.89;101094.19;5016123;28;2813;-65
2022/10/14 02:58:16;;;;;;;;;;;;;;;21.13;54.20;101093.53;5011458;28;2826;-65
2022/10/14 03:00:42;;;;;;;;;;;;;;;21.14;54.35;101086.38;5006042;28;2821;-65
2022/10/14 03:03:10;;;;;;;;;;;;;;;21.15;54.08;101081.38;5011844;28;2954;-65
2022/10/14 03:05:37;;;;;;;;;;;;;;;21.15;54.42;101076.34;5006935;28;3105;-65
2022/10/14 03:08:09;;;;;;;;;;;;;;;21.16;54.57;101072.06;5014008;28;3135;-65
2022/10/14 03:10:37;;;;;;;;;;;;;;;21.18;54.40;101075.03;5041710;28;3291;-65
2022/10/14 03:13:05;;;;;;;;;;;;;;;21.17;54.46;101067.81;5015617;28;2973;-62
2022/10/14 03:15:37;;;;;;;;;;;;;;;21.17;54.68;101067.81;5017065;28;2817;-65
2022/10/14 03:18:04;;;;;;;;;;;;;;;21.16;54.90;101072.06;5024785;28;2812;-64
2022/10/14 03:20:39;;;;;;;;;;;;;;;21.19;54.70;101076.56;5020475;28;2847;-64
2022/10/14 03:23:07;;;;;;;;;;;;;;;21.19;54.75;101072.91;5021374;28;2872;-65
2022/10/14 03:25:35;;;;;;;;;;;;;;;21.20;54.58;101083.78;5008493;28;2972;-64
2022/10/14 03:28:22;;;;;;;;;;;;;;;21.24;54.50;101083.97;5010540;28;2842;-65
2022/10/14 03:30:55;;;;;;;;;;;;;;;21.25;54.70;101073.94;5022662;28;2773;-66
2022/10/14 03:33:37;;;;;;;;;;;;;;;21.24;54.50;101083.97;5011932;28;2875;-66
2022/10/14 03:36:07;;;;;;;;;;;;;;;21.23;54.92;101079.59;5008263;28;2922;-65
2022/10/14 03:38:45;;;;;;;;;;;;;;;21.23;55.31;101078.84;5005837;28;2973;-65
2022/10/14 03:41:26;;;;;;;;;;;;;;;21.23;55.37;101076.72;5009123;28;3192;-65
2022/10/14 03:43:53;;;;;;;;;;;;;;;21.22;55.60;101078.13;5007967;28;2998;-65
2022/10/14 03:46:19;;;;;;;;;;;;;;;21.23;55.30;101085.34;5015621;28;2782;-65
2022/10/14 03:48:47;;;;;;;;;;;;;;;21.25;55.23;101079.69;5016778;28;2691;-65
2022/10/14 03:51:13;;;;;;;;;;;;;;;21.25;55.53;101091.22;5012965;28;2959;-65
2022/10/14 03:53:41;;;;;;;;;;;;;;;21.25;55.65;101079.69;5017165;28;2832;-65
2022/10/14 03:56:10;;;;;;;;;;;;;;;21.27;55.47;101070.41;5016213;28;2893;-65
2022/10/14 03:58:36;;;;;;;;;;;;;;;21.28;55.54;101071.88;5009633;28;2918;-65
2022/10/14 04:01:09;;;;;;;;;;;;;;;21.26;55.54;101075.44;5025759;28;2876;-65
2022/10/14 04:03:55;;;;;;;;;;;;;;;21.27;55.46;101068.28;5007392;28;2945;-65
2022/10/14 04:06:23;;;;;;;;;;;;;;;21.27;55.90;101076.91;5014734;28;2864;-65
2022/10/14 04:08:55;;;;;;;;;;;;;;;21.29;55.70;101073.38;5011887;28;2834;-65
2022/10/14 04:11:27;;;;;;;;;;;;;;;21.27;56.04;101071.16;5026474;28;2995;-65
2022/10/14 04:14:00;;;;;;;;;;;;;;;21.28;55.92;101066.88;5017041;28;2893;-65
2022/10/14 04:16:28;;;;;;;;;;;;;;;21.28;55.66;101063.25;5048536;28;2748;-65
2022/10/14 04:18:59;;;;;;;;;;;;;;;21.27;55.88;101067.53;5045151;28;2925;-65
2022/10/14 04:21:26;;;;;;;;;;;;;;;21.27;55.86;101065.38;5017701;28;2783;-65
2022/10/14 04:23:52;;;;;;;;;;;;;;;21.26;55.62;101058.16;5018254;28;1608;-65
2022/10/14 04:26:30;;;;;;;;;;;;;;;21.27;55.71;101053.88;5014725;28;2921;-65
2022/10/14 04:28:57;;;;;;;;;;;;;;;21.26;56.26;101054.53;5018425;28;2874;-65
2022/10/14 04:31:32;;;;;;;;;;;;;;;21.29;55.83;101061.88;5012218;28;2955;-65
2022/10/14 04:34:01;;;;;;;;;;;;;;;21.26;56.26;101055.28;5042982;28;2940;-66
2022/10/14 04:36:32;;;;;;;;;;;;;;;21.29;55.55;101056.84;5009048;28;3138;-65
2022/10/14 04:39:01;;;;;;;;;;;;;;;21.30;55.11;101049.72;5018200;28;3084;-66
2022/10/14 04:41:27;;;;;;;;;;;;;;;21.32;55.21;101049.03;5010770;28;3007;-65
2022/10/14 04:43:56;;;;;;;;;;;;;;;21.32;54.95;101046.16;5014922;28;2854;-65
2022/10/14 04:46:30;;;;;;;;;;;;;;;21.32;55.42;101049.78;5023301;28;2883;-66
2022/10/14 04:48:56;;;;;;;;;;;;;;;21.31;55.77;101048.31;5009729;28;2806;-67
2022/10/14 04:51:27;;;;;;;;;;;;;;;21.32;55.76;101049.03;5004879;28;3090;-67
2022/10/14 04:54:02;;;;;;;;;;;;;;;21.31;55.74;101051.19;5011587;28;2940;-65
2022/10/14 04:56:39;;;;;;;;;;;;;;;21.31;55.88;101048.31;5012235;28;2937;-64
2022/10/14 04:59:06;;;;;;;;;;;;;;;21.32;55.82;101040.41;5009125;28;2918;-65
2022/10/14 05:01:49;;;;;;;;;;;;;;;21.32;55.71;101049.78;5019694;28;2766;-65
2022/10/14 05:04:16;;;;;;;;;;;;;;;21.34;55.82;101049.88;5023478;28;3047;-65
2022/10/14 05:06:45;;;;;;;;;;;;;;;21.32;56.17;101044.00;5017434;28;2971;-66
2022/10/14 05:09:13;;;;;;;;;;;;;;;21.38;56.13;101045.69;5020342;28;2861;-66
2022/10/14 05:11:41;;;;;;;;;;;;;;;21.42;56.61;101048.81;5010387;28;2929;-66
2022/10/14 05:14:08;;;;;;;;;;;;;;;21.42;56.83;101045.91;5011127;28;3298;-66
2022/10/14 05:16:36;;;;;;;;;;;;;;;21.42;56.28;101040.16;5010540;28;3236;-65
2022/10/14 05:19:05;;;;;;;;;;;;;;;21.01;53.33;101026.75;5041325;28;2992;-65
2022/10/14 05:21:34;;;;;;;;;;;;;;;21.13;54.28;101033.06;5003442;28;2827;-66
2022/10/14 05:24:13;;;;;;;;;;;;;;;21.25;54.87;101032.88;5009805;28;3283;-65
2022/10/14 05:26:41;;;;;;;;;;;;;;;21.31;55.13;101042.53;5005330;28;2852;-64
2022/10/14 05:29:11;;;;;;;;;;;;;;;21.18;54.97;101040.50;5006845;28;3264;-66
2022/10/14 05:31:38;;;;;;;;;;;;;;;21.20;55.37;101031.22;5026245;28;2977;-66
2022/10/14 05:34:29;;;;;;;;;;;;;;;21.28;55.75;101025.81;5013217;28;3081;-67
2022/10/14 05:36:56;;;;;;;;;;;;;;;21.31;55.67;101025.25;5022406;28;2765;-66
2022/10/14 05:39:23;;;;;;;;;;;;;;;21.32;55.87;101023.84;5030967;28;2172;-68
2022/10/14 05:41:50;;;;;;;;;;;;;;;21.34;55.59;101034.72;5010847;28;2906;-66
2022/10/14 05:44:21;;;;;;;;;;;;;;;21.36;55.50;101025.44;5012901;28;2719;-67
2022/10/14 05:46:48;;;;;;;;;;;;;;;21.34;55.60;101035.47;5024525;28;1705;-67
2022/10/14 05:49:15;;;;;;;;;;;;;;;21.38;55.44;101037.06;5029299;28;2996;-66
2022/10/14 05:51:42;;;;;;;;;;;;;;;21.40;55.20;101037.16;5018155;28;3055;-66
2022/10/14 05:54:15;;;;;;;;;;;;;;;21.39;55.60;101030.63;5017920;28;2882;-66
2022/10/14 05:56:42;;;;;;;;;;;;;;;21.39;55.20;101036.38;5015646;28;2818;-65
2022/10/14 05:59:09;;;;;;;;;;;;;;;21.40;55.40;101032.16;5016679;28;2800;-65
2022/10/14 06:01:37;;;;;;;;;;;;;;;21.38;55.32;101029.16;5014523;28;1964;-66
2022/10/14 06:04:03;;;;;;;;;;;;;;;21.39;55.75;101039.28;5013443;28;2858;-66
2022/10/14 06:06:29;;;;;;;;;;;;;;;21.40;55.66;101028.50;5015394;28;2469;-67
2022/10/14 06:08:56;;;;;;;;;;;;;;;21.38;55.46;101031.28;5014764;28;2741;-66
2022/10/14 06:11:22;;;;;;;;;;;;;;;21.38;55.39;101028.41;5015932;28;1635;-66
2022/10/14 06:13:49;;;;;;;;;;;;;;;21.37;55.57;101027.66;5005765;28;2828;-66
2022/10/14 06:16:15;;;;;;;;;;;;;;;21.37;55.39;101032.69;5013612;28;3309;-65
2022/10/14 06:18:42;;;;;;;;;;;;;;;21.38;55.74;101034.91;5003643;28;2936;-63
2022/10/14 06:21:09;;;;;;;;;;;;;;;21.40;55.05;101032.16;5006964;28;2882;-63
2022/10/14 06:23:35;;;;;;;;;;;;;;;21.39;55.32;101035.66;5017511;28;2932;-63
2022/10/14 06:26:02;;;;;;;;;;;;;;;21.11;54.76;101032.97;5009664;28;3337;-68
2022/10/14 06:28:29;;;;;;;;;;;;;;;21.26;57.25;101032.22;5003361;28;3886;-62
2022/10/14 06:30:55;;;;;;;;;;;;;;;21.44;55.05;101026.59;5010283;28;4627;-62
2022/10/14 06:33:21;;;;;;;;;;;;;;;21.23;54.68;101029.91;5006866;28;2935;-64
2022/10/14 06:35:48;;;;;;;;;;;;;;;21.14;54.91;101040.28;5010609;28;2962;-62
2022/10/14 06:38:14;;;;;;;;;;;;;;;21.29;54.23;101030.19;5009873;28;3080;-63
2022/10/14 06:40:40;;;;;;;;;;;;;;;21.32;54.00;101038.25;5012282;28;3040;-62
2022/10/14 06:43:07;;;;;;;;;;;;;;;21.36;53.36;101037.69;5012956;28;3061;-62
2022/10/14 06:45:33;;;;;;;;;;;;;;;21.37;53.08;101041.31;5014395;28;2996;-62
2022/10/14 06:48:00;;;;;;;;;;;;;;;21.36;52.98;101048.50;5013212;28;3065;-62
2022/10/14 06:50:26;;;;;;;;;;;;;;;21.33;53.00;101045.50;5010980;28;4675;-62
2022/10/14 06:52:53;;;;;;;;;;;;;;;21.24;53.23;101046.53;5019592;28;3204;-63
2022/10/14 06:55:19;;;;;;;;;;;;;;;21.29;53.83;101053.97;5010638;28;4559;-59
2022/10/14 06:57:45;;;;;;;;;;;;;;;14.48;64.70;101058.00;5015740;28;3386;-58
2022/10/14 07:00:12;;;;;;;;;;;;;;;13.25;70.35;101060.09;5012934;28;4553;-56
2022/10/14 07:02:38;;;;;;;;;;;;;;;16.52;65.52;101062.78;5015967;28;2008;-55
2022/10/14 07:05:04;;;;;;;;;;;;;;;19.28;60.52;101059.78;5017650;28;2213;-58
2022/10/14 07:07:31;;;;;;;;;;;;;;;20.18;55.93;101055.81;5013874;28;4579;-62
2022/10/14 07:09:57;;;;;;;;;;;;;;;20.34;54.19;101053.78;5018070;28;4137;-60
2022/10/14 07:12:24;;;;;;;;;;;;;;;20.53;54.65;101063.31;5016803;28;4029;-59
2022/10/14 07:14:51;;;;;;;;;;;;;;;21.06;56.69;101048.56;5018468;28;1605;-63
2022/10/14 07:17:17;;;;;;;;;;;;;;;21.39;56.57;101052.94;5045334;28;1582;-58
2022/10/14 07:19:44;;;;;;;;;;;;;;;21.52;54.88;101055.00;5015583;28;4776;-61
2022/10/14 07:22:10;;;;;;;;;;;;;;;21.51;53.81;101059.28;5014909;28;4022;-62
2022/10/14 07:24:36;;;;;;;;;;;;;;;21.56;54.75;101057.34;5012840;28;4463;-50
2022/10/14 07:27:03;;;;;;;;;;;;;;;21.63;54.53;101065.59;5016267;28;4064;-48
2022/10/14 07:29:29;;;;;;;;;;;;;;;21.65;53.59;101062.81;5011329;28;3449;-49
2022/10/14 07:31:55;;;;;;;;;;;;;;;21.66;53.50;101058.50;5008513;28;4246;-48
2022/10/14 07:34:22;;;;;;;;;;;;;;;21.67;52.61;101071.53;5013397;28;4621;-50
2022/10/14 07:36:48;;;;;;;;;;;;;;;21.69;52.69;101057.22;5014961;28;3930;-50
2022/10/14 07:39:14;;;;;;;;;;;;;;;21.72;52.60;101070.31;5014054;28;3067;-53
2022/10/14 07:41:41;;;;;;;;;;;;;;;21.78;52.19;101057.56;5015339;28;2966;-51
2022/10/14 07:44:08;;;;;;;;;;;;;;;21.80;51.87;101055.50;5015716;28;3078;-51
2022/10/14 07:46:36;;;;;;;;;;;;;;;21.90;52.47;101058.09;5015841;28;2945;-51
2022/10/14 07:49:06;;;;;;;;;;;;;;;21.91;51.35;101059.56;5017257;28;1609;-52
2022/10/14 07:51:32;;;;;;;;;;;;;;;21.94;51.48;101058.25;5017208;28;2399;-55
2022/10/14 07:53:59;;;;;;;;;;;;;;;21.82;52.03;101066.38;5015128;28;2978;-51
2022/10/14 07:56:25;;;;;;;;;;;;;;;21.85;52.10;101050.66;5016399;28;3010;-49
2022/10/14 07:58:52;;;;;;;;;;;;;;;21.93;51.77;101056.78;5014166;28;2980;-48
2022/10/14 08:01:18;;;;;;;;;;;;;;;22.05;51.78;101063.06;5011092;28;4498;-51
2022/10/14 08:03:45;;;;;;;;;;;;;;;22.12;51.72;101061.91;5017290;28;3949;-54
2022/10/14 08:06:11;;;;;;;;;;;;;;;22.18;51.40;101067.22;5016486;28;1728;-53
2022/10/14 08:08:38;;;;;;;;;;;;;;;22.15;51.75;101060.63;5018357;28;3932;-53
2022/10/14 08:11:27;;;;;;;;;;;;;;;22.21;51.30;101062.28;5015175;28;1638;-52
2022/10/14 08:13:53;;;;;;;;;;;;;;;22.16;51.73;101064.25;5011516;28;1554;-48
2022/10/14 08:16:21;;;;;;;;;;;;;;;22.15;51.71;101062.75;5017130;28;1674;-50
2022/10/14 08:18:48;;;;;;;;;;;;;;;21.99;52.13;101059.19;5013235;28;3929;-46
2022/10/14 08:21:15;;;;;;;;;;;;;;;21.95;52.49;101054.00;5016761;28;1991;-49
2022/10/14 08:23:41;;;;;;;;;;;;;;;22.00;52.68;101049.88;5017289;28;1657;-50
2022/10/14 08:26:17;;;;;;;;;;;;;;;22.04;52.68;101043.56;5017179;28;1646;-50
2022/10/14 08:28:44;;;;;;;;;;;;;;;22.08;52.47;101038.69;5013647;28;4515;-49
2022/10/14 08:31:10;;;;;;;;;;;;;;;21.97;52.07;101039.66;5015118;28;3983;-49
2022/10/14 08:33:36;;;;;;;;;;;;;;;21.99;52.67;101036.88;5016250;28;2748;-49
2022/10/14 08:36:03;;;;;;;;;;;;;;;22.04;52.55;101046.44;5012440;28;1573;-51
2022/10/14 08:38:29;;;;;;;;;;;;;;;22.08;52.46;101044.47;5017050;28;1554;-53
2022/10/14 08:41:02;;;;;;;;;;;;;;;22.10;52.65;101050.28;5017047;28;1581;-49
2022/10/14 08:43:29;;;;;;;;;;;;;;;22.20;52.20;101049.25;5016485;28;1914;-52
2022/10/14 08:45:57;;;;;;;;;;;;;;;22.27;51.98;101048.16;5015174;28;2703;-49
2022/10/14 08:48:23;;;;;;;;;;;;;;;22.23;52.34;101042.19;5014777;28;3055;-49
2022/10/14 08:50:51;;;;;;;;;;;;;;;22.27;52.04;101034.47;5013659;28;4291;-49
2022/10/14 08:53:41;;;;;;;;;;;;;;;22.24;52.05;101037.91;5014621;28;4017;-56
2022/10/14 08:56:07;;;;;;;;;;;;;;;22.27;51.75;101048.16;5015025;28;2005;-52
2022/10/14 08:58:34;;;;;;;;;;;;;;;22.24;51.87;101038.66;5032485;28;2816;-49
2022/10/14 09:01:02;;;;;;;;;;;;;;;22.23;51.85;101024.91;5007291;28;3142;-48
2022/10/14 09:03:35;;;;;;;;;;;;;;;22.27;52.25;101031.56;5013535;28;3440;-51
2022/10/14 09:06:05;;;;;;;;;;;;;;;22.33;52.02;101025.28;5017110;28;3093;-49
2022/10/14 09:08:40;;;;;;;;;;;;;;;22.28;52.08;101023.66;5051138;28;2482;-52
2022/10/14 09:11:17;;;;;;;;;;;;;;;22.29;52.00;101028.78;5019274;28;3146;-49
2022/10/14 09:13:44;;;;;;;;;;;;;;;22.34;51.79;101021.03;5017897;28;2867;-49
2022/10/14 09:16:15;;;;;;;;;;;;;;;22.40;51.62;101021.25;5016850;28;3088;-52
2022/10/14 09:18:43;;;;;;;;;;;;;;;22.32;52.17;101010.13;5031019;28;3036;-47
2022/10/14 09:21:28;;;;;;;;;;;;;;;22.27;52.05;101014.25;5018277;28;2756;-49
2022/10/14 09:24:17;;;;;;;;;;;;;;;22.28;52.00;101012.13;5019734;28;1751;-49
2022/10/14 09:26:47;;;;;;;;;;;;;;;22.30;51.98;101006.44;5013547;28;2933;-51
2022/10/14 09:29:18;;;;;;;;;;;;;;;22.28;52.02;101001.31;5019071;28;1639;-51
2022/10/14 09:31:44;;;;;;;;;;;;;;;22.10;52.23;101007.03;5014126;28;2921;-49
2022/10/14 09:34:22;;;;;;;;;;;;;;;22.27;52.43;101002.00;5017757;28;2841;-53
2022/10/14 09:36:49;;;;;;;;;;;;;;;22.34;51.86;101012.38;5025441;28;3017;-50
2022/10/14 09:39:15;;;;;;;;;;;;;;;22.35;51.43;101013.84;5020213;28;1530;-50
2022/10/14 09:41:41;;;;;;;;;;;;;;;22.35;51.62;101008.06;5010701;28;3572;-49
2022/10/14 09:44:17;;;;;;;;;;;;;;;22.35;51.76;101008.06;5014891;28;3100;-51
2022/10/14 09:46:45;;;;;;;;;;;;;;;22.31;51.69;101002.13;5015294;28;2876;-51
2022/10/14 09:49:15;;;;;;;;;;;;;;;22.32;52.51;101009.41;5019131;28;2730;-52
2022/10/14 09:51:42;;;;;;;;;;;;;;;22.41;51.88;101002.56;5014964;28;2966;-55
2022/10/14 09:54:08;;;;;;;;;;;;;;;22.40;52.16;100995.28;5017418;28;2998;-49
2022/10/14 09:56:39;;;;;;;;;;;;;;;22.16;52.30;100998.66;5030218;28;1640;-54
2022/10/14 09:59:18;;;;;;;;;;;;;;;22.17;52.82;101002.25;5010167;28;4681;-51
2022/10/14 10:01:52;;;;;;;;;;;;;;;22.25;52.82;100993.25;5030912;28;4006;-51
2022/10/14 10:04:30;;;;;;;;;;;;;;;22.20;52.96;100991.56;5017920;28;1613;-48
2022/10/14 10:06:56;;;;;;;;;;;;;;;22.27;52.82;100999.84;5017212;28;4069;-51
2022/10/14 10:09:23;;;;;;;;;;;;;;;22.20;52.89;100988.69;5017498;28;1577;-50
2022/10/14 10:11:49;;;;;;;;;;;;;;;22.28;52.83;100986.16;5017918;28;1617;-52
2022/10/14 10:14:24;;;;;;;;;;;;;;;22.24;52.78;100994.63;5017653;28;1770;-52
2022/10/14 10:17:11;;;;;;;;;;;;;;;22.24;53.21;100998.28;5017726;28;1644;-52
2022/10/14 10:19:42;;;;;;;;;;;;;;;22.26;52.91;100992.56;5016923;28;3952;-52
2022/10/14 10:22:16;;;;;;;;;;;;;;;22.24;53.10;100991.75;5016488;28;1971;-48
2022/10/14 10:24:48;;;;;;;;;;;;;;;22.38;53.36;100992.34;5018614;28;1623;-51
2022/10/14 10:27:18;;;;;;;;;;;;;;;22.31;53.26;101002.13;5017451;28;1558;-55
2022/10/14 10:29:46;;;;;;;;;;;;;;;22.29;53.25;100987.66;5016949;28;1613;-54
2022/10/14 10:32:14;;;;;;;;;;;;;;;22.27;53.24;100987.56;5018395;28;1763;-51
2022/10/14 10:34:50;;;;;;;;;;;;;;;22.31;53.35;100984.81;5032389;28;1624;-52
2022/10/14 10:37:29;;;;;;;;;;;;;;;22.33;53.38;100987.78;5016707;28;1578;-49
2022/10/14 10:40:08;;;;;;;;;;;;;;;22.36;53.41;100974.94;5018299;28;1610;-47
2022/10/14 10:42:38;;;;;;;;;;;;;;;22.34;53.26;100983.53;5049659;28;1909;-49
2022/10/14 10:45:05;;;;;;;;;;;;;;;22.31;53.32;100984.81;5047283;28;3167;-47
2022/10/14 10:47:41;;;;;;;;;;;;;;;22.32;53.29;100978.41;5029879;28;2970;-49
2022/10/14 10:50:25;;;;;;;;;;;;;;;22.34;53.25;100980.63;5017413;28;2536;-49
2022/10/14 10:53:10;;;;;;;;;;;;;;;22.35;53.43;100977.06;5018578;28;3261;-47
2022/10/14 10:55:38;;;;;;;;;;;;;;;22.39;53.43;100979.38;5015923;28;2299;-51
2022/10/14 10:58:10;;;;;;;;;;;;;;;22.40;53.08;100983.75;5031409;28;1572;-48
2022/10/14 11:00:57;;;;;;;;;;;;;;;22.40;53.38;100971.47;5035122;28;2361;-50
2022/10/14 11:03:43;;;;;;;;;;;;;;;22.50;53.54;100969.72;5016102;28;1973;-48
2022/10/14 11:12:14;;;;;;;;;;;;;;;21.93;53.47;100958.75;5013261;28;4625;-53
2022/10/14 11:14:49;;;;;;;;;;;;;;;21.98;53.49;100960.41;5012382;28;4686;-51
2022/10/14 11:17:18;;;;;;;;;;;;;;;22.14;53.88;100955.28;5014766;28;4068;-51
2022/10/14 11:19:45;;;;;;;;;;;;;;;22.33;53.51;100947.41;5017148;28;4098;-53
2022/10/14 11:22:27;;;;;;;;;;;;;;;22.40;53.48;100946.25;5012819;28;3770;-52
2022/10/14 11:25:21;;;;;;;;;;;;;;;22.45;53.30;100950.78;5014739;28;2979;-55
2022/10/14 11:27:51;;;;;;;;;;;;;;;22.56;52.85;100949.03;4987045;28;4682;-57
2022/10/14 11:30:32;;;;;;;;;;;;;;;22.39;53.60;100944.78;5019251;28;4509;-55
2022/10/14 11:33:05;;;;;;;;;;;;;;;22.56;53.13;100946.91;5012172;28;2828;-57
2022/10/14 11:35:35;;;;;;;;;;;;;;;22.69;52.71;100932.91;5010806;28;3123;-54
2022/10/14 11:38:05;;;;;;;;;;;;;;;22.65;53.17;100930.59;5008116;28;3263;-58
2022/10/14 11:40:37;;;;;;;;;;;;;;;22.64;53.17;100928.41;5007016;28;4341;-58
2022/10/14 11:43:19;;;;;;;;;;;;;;;22.61;52.83;100933.34;5010586;28;2985;-56
2022/10/14 11:45:56;;;;;;;;;;;;;;;22.59;52.76;100924.63;5010364;28;3075;-61
2022/10/14 11:48:25;;;;;;;;;;;;;;;22.61;53.01;100918.94;5023524;28;3015;-52
2022/10/14 11:50:55;;;;;;;;;;;;;;;22.61;52.94;100921.81;5013157;28;3022;-52
2022/10/14 11:53:23;;;;;;;;;;;;;;;22.60;52.92;100920.31;5021576;28;3372;-53
2022/10/14 11:56:16;;;;;;;;;;;;;;;22.62;52.63;100919.66;5021045;28;4139;-57
2022/10/14 11:58:42;;;;;;;;;;;;;;;22.57;52.81;100913.72;5012268;28;2871;-57
2022/10/14 12:01:09;;;;;;;;;;;;;;;22.59;52.67;100913.81;5007330;28;4684;-59
2022/10/14 12:03:39;;;;;;;;;;;;;;;22.58;53.14;100914.47;5013815;28;3001;-54
2022/10/14 12:06:24;;;;;;;;;;;;;;;22.64;53.26;100913.97;5009319;28;4783;-51
2022/10/14 12:08:54;;;;;;;;;;;;;;;22.57;52.88;100916.63;5005654;28;3144;-50
2022/10/14 12:11:20;;;;;;;;;;;;;;;22.61;52.95;100909.50;5009102;28;3067;-56
2022/10/14 12:13:51;;;;;;;;;;;;;;;22.63;52.56;100910.34;5013494;28;3171;-55
2022/10/14 12:16:18;;;;;;;;;;;;;;;22.54;53.18;100912.19;5023102;28;3102;-56
2022/10/14 12:18:45;;;;;;;;;;;;;;;22.59;53.05;100905.16;5015911;28;3551;-56
2022/10/14 12:21:11;;;;;;;;;;;;;;;22.46;53.26;100906.09;5025136;28;3071;-59
2022/10/14 12:23:42;;;;;;;;;;;;;;;22.54;52.87;100903.53;5015957;28;3028;-54
2022/10/14 12:26:11;;;;;;;;;;;;;;;22.56;52.90;100897.06;5012354;28;3033;-58
2022/10/14 12:28:37;;;;;;;;;;;;;;;22.51;52.87;100899.06;5030333;28;3198;-58
2022/10/14 12:31:22;;;;;;;;;;;;;;;22.54;53.24;100891.97;5020071;28;3198;-57
2022/10/14 12:34:07;;;;;;;;;;;;;;;22.64;52.88;100894.50;5019029;28;4094;-57
2022/10/14 12:36:33;;;;;;;;;;;;;;;22.67;52.90;100886.66;5013998;28;2978;-58
2022/10/14 12:39:16;;;;;;;;;;;;;;;22.55;52.64;100890.56;5018677;28;2935;-57
2022/10/14 12:42:02;;;;;;;;;;;;;;;22.45;53.01;100878.66;5017029;28;3168;-54
2022/10/14 12:44:31;;;;;;;;;;;;;;;22.07;54.05;100878.59;5012663;28;4483;-59
2022/10/14 12:46:57;;;;;;;;;;;;;;;22.01;54.51;100872.56;5024402;28;3040;-61
2022/10/14 12:49:26;;;;;;;;;;;;;;;21.96;53.31;100876.72;5011369;28;3180;-61
2022/10/14 12:51:54;;;;;;;;;;;;;;;21.93;53.19;100872.25;5013816;28;3197;-59
2022/10/14 12:54:20;;;;;;;;;;;;;;;21.83;53.57;100866.06;5016954;28;3052;-58
2022/10/14 12:56:54;;;;;;;;;;;;;;;21.89;53.79;100857.69;5013401;28;2793;-55
2022/10/14 12:59:22;;;;;;;;;;;;;;;21.91;54.63;100863.53;5016973;28;2946;-53
2022/10/14 13:01:55;;;;;;;;;;;;;;;21.99;53.71;100858.09;5014751;28;4499;-56
2022/10/14 13:04:21;;;;;;;;;;;;;;;21.99;53.82;100852.34;5016115;28;3085;-56
2022/10/14 13:07:08;;;;;;;;;;;;;;;21.92;54.81;100853.47;5017685;28;2950;-54
2022/10/14 13:09:48;;;;;;;;;;;;;;;21.99;54.45;100852.34;5012452;28;4557;-55